createdAt,value
2018-12-03T00:00:24.128Z,43.87
2018-12-03T00:05:26.275Z,31.03
2018-12-03T00:10:28.444Z,26.70
2018-12-03T00:15:30.570Z,25.17
2018-12-03T00:20:32.715Z,32.17
2018-12-03T00:25:34.875Z,28.73
2018-12-03T00:30:36.993Z,31.13
2018-12-03T00:35:39.126Z,27.30
2018-12-03T00:40:41.386Z,33.13
2018-12-03T00:45:43.568Z,27.93
2018-12-03T00:50:45.674Z,32.47
2018-12-03T00:55:47.801Z,23.27
2018-12-03T01:00:49.919Z,18.80
2018-12-03T01:05:52.125Z,21.00
2018-12-03T01:10:54.279Z,23.00
2018-12-03T01:15:56.439Z,31.67
2018-12-03T01:20:58.622Z,40.37
2018-12-03T01:26:00.723Z,28.47
2018-12-03T01:31:02.906Z,39.30
2018-12-03T01:36:05.388Z,33.50
2018-12-03T01:41:07.518Z,46.03
2018-12-03T01:46:09.629Z,41.30
2018-12-03T01:51:11.759Z,40.77
2018-12-03T01:56:13.875Z,44.33
2018-12-03T02:01:16.001Z,56.80
2018-12-03T02:06:18.160Z,49.80
2018-12-03T02:11:20.277Z,48.43
2018-12-03T02:16:22.937Z,42.57
2018-12-03T02:21:25.026Z,58.13
2018-12-03T02:26:27.148Z,47.40
2018-12-03T02:31:29.291Z,55.93
2018-12-03T02:36:31.418Z,45.97
2018-12-03T02:41:33.525Z,54.83
2018-12-03T02:46:35.647Z,39.77
2018-12-03T02:51:37.769Z,45.53
2018-12-03T02:56:39.881Z,39.67
2018-12-03T03:01:41.990Z,40.40
2018-12-03T03:06:44.075Z,55.30
2018-12-03T03:11:46.198Z,43.53
2018-12-03T03:16:48.323Z,48.63
2018-12-03T03:21:50.441Z,42.33
2018-12-03T03:26:52.560Z,55.23
2018-12-03T03:31:54.701Z,42.47
2018-12-03T03:36:56.829Z,45.03
2018-12-03T03:41:58.987Z,45.57
2018-12-03T03:47:01.178Z,43.77
2018-12-03T03:52:03.327Z,39.23
2018-12-03T03:57:05.462Z,50.30
2018-12-03T04:02:07.601Z,43.37
2018-12-03T04:07:09.747Z,67.97
2018-12-03T04:12:11.860Z,51.10
2018-12-03T04:17:13.964Z,58.03
2018-12-03T04:22:16.060Z,65.20
2018-12-03T04:27:18.178Z,67.63
2018-12-03T04:32:20.324Z,76.90
2018-12-03T04:37:22.453Z,72.57
2018-12-03T04:42:24.561Z,67.53
2018-12-03T04:47:26.668Z,63.60
2018-12-03T04:52:28.786Z,65.60
2018-12-03T04:57:30.911Z,57.97
2018-12-03T05:02:33.037Z,53.43
2018-12-03T05:07:35.218Z,49.83
2018-12-03T05:12:37.365Z,60.53
2018-12-03T05:17:39.831Z,69.13
2018-12-03T05:22:41.993Z,42.43
2018-12-03T05:27:44.097Z,51.37
2018-12-03T05:32:46.516Z,52.70
2018-12-03T05:37:48.620Z,46.57
2018-12-03T05:42:50.776Z,47.23
2018-12-03T05:47:52.904Z,44.73
2018-12-03T05:52:55.032Z,41.73
2018-12-03T05:57:57.149Z,50.33
2018-12-03T06:02:59.306Z,42.77
2018-12-03T06:08:01.434Z,47.47
2018-12-03T06:13:03.620Z,60.30
2018-12-03T06:18:05.822Z,55.10
2018-12-03T06:23:07.998Z,47.13
2018-12-03T06:28:10.106Z,40.67
2018-12-03T06:33:12.216Z,45.87
2018-12-03T06:38:15.535Z,36.57
2018-12-03T06:43:16.511Z,36.73
2018-12-03T06:48:20.506Z,40.43
2018-12-03T06:53:22.649Z,42.00
2018-12-03T06:58:24.773Z,39.27
2018-12-03T07:03:26.889Z,50.30
2018-12-03T07:08:29.012Z,43.03
2018-12-03T07:13:31.140Z,35.13
2018-12-03T07:18:33.240Z,37.07
2018-12-03T07:23:35.360Z,26.40
2018-12-03T07:28:37.498Z,39.93
2018-12-03T07:33:39.657Z,41.73
2018-12-03T07:38:41.776Z,20.13
2018-12-03T07:43:43.877Z,31.37
2018-12-03T07:48:46.013Z,32.03
2018-12-03T07:53:48.133Z,28.47
2018-12-03T07:58:50.281Z,15.80
2018-12-03T08:03:52.811Z,27.93
2018-12-03T08:08:54.909Z,31.57
2018-12-03T08:14:01.112Z,36.53
2018-12-03T08:19:03.237Z,24.80
2018-12-03T08:24:08.597Z,29.47
2018-12-03T08:29:10.759Z,35.83
2018-12-03T08:34:12.897Z,27.73
2018-12-03T08:39:15.026Z,21.97
2018-12-03T08:44:17.193Z,26.97
2018-12-03T08:49:19.294Z,38.57
2018-12-03T08:54:21.411Z,29.30
2018-12-03T08:59:23.556Z,29.93
2018-12-03T09:04:25.663Z,43.53
2018-12-03T09:09:27.804Z,36.53
2018-12-03T09:14:31.809Z,49.43
2018-12-03T09:19:33.927Z,40.23
2018-12-03T09:24:36.057Z,32.73
2018-12-03T09:29:38.185Z,42.98
2018-12-03T09:34:40.358Z,24.93
2018-12-03T09:39:42.545Z,25.37
2018-12-03T09:44:44.636Z,31.37
2018-12-03T09:49:46.776Z,41.53
2018-12-03T09:54:48.882Z,56.43
2018-12-03T09:59:51.027Z,31.10
2018-12-03T10:04:56.123Z,43.53
2018-12-03T10:09:58.250Z,38.97
2018-12-03T10:15:00.382Z,26.83
2018-12-03T10:20:02.673Z,43.97
2018-12-03T10:25:11.114Z,27.00
2018-12-03T10:30:15.681Z,38.30
2018-12-03T10:35:18.007Z,29.97
2018-12-03T10:40:22.417Z,29.73
2018-12-03T10:45:26.256Z,41.27
2018-12-03T10:50:26.772Z,37.57
2018-12-03T10:55:28.921Z,36.40
2018-12-03T11:00:36.954Z,41.67
2018-12-03T11:05:44.961Z,32.77
2018-12-03T11:10:47.112Z,34.57
2018-12-03T11:15:49.272Z,35.43
2018-12-03T11:20:51.433Z,54.17
2018-12-03T11:25:53.639Z,46.47
2018-12-03T11:30:55.778Z,29.87
2018-12-03T11:35:59.008Z,47.83
2018-12-03T11:41:01.140Z,38.40
2018-12-03T11:46:03.303Z,35.23
2018-12-03T11:51:05.473Z,51.37
2018-12-03T11:56:07.626Z,45.80
2018-12-03T12:01:09.744Z,40.97
2018-12-03T12:06:11.894Z,43.50
2018-12-03T12:11:14.006Z,21.07
2018-12-03T12:16:16.158Z,32.80
2018-12-03T12:21:18.297Z,38.07
2018-12-03T12:26:20.461Z,42.20
2018-12-03T12:31:22.647Z,54.00
2018-12-03T12:36:24.830Z,40.07
2018-12-03T12:41:26.989Z,29.93
2018-12-03T12:46:29.176Z,30.60
2018-12-03T12:51:31.289Z,38.90
2018-12-03T12:56:33.409Z,32.40
2018-12-03T13:01:36.006Z,36.30
2018-12-03T13:06:38.140Z,29.20
2018-12-03T13:11:40.543Z,30.03
2018-12-03T13:16:42.699Z,47.97
2018-12-03T13:21:44.839Z,38.30
2018-12-03T13:26:46.998Z,56.90
2018-12-03T13:31:49.230Z,38.50
2018-12-03T13:36:51.481Z,39.20
2018-12-03T13:41:53.605Z,39.27
2018-12-03T13:46:55.795Z,31.90
2018-12-03T13:51:57.970Z,42.20
2018-12-03T13:57:00.390Z,48.17
2018-12-03T14:02:02.586Z,45.63
2018-12-03T14:07:13.890Z,48.47
2018-12-03T14:12:23.662Z,54.80
2018-12-03T14:17:37.114Z,37.70
2018-12-03T14:22:43.899Z,34.57
2018-12-03T14:27:46.071Z,65.40
2018-12-03T14:32:48.237Z,40.83
2018-12-03T14:37:50.469Z,36.70
2018-12-03T14:42:52.637Z,48.23
2018-12-03T14:47:54.827Z,37.70
2018-12-03T14:52:57.001Z,37.07
2018-12-03T14:57:59.192Z,47.43
2018-12-03T15:03:01.367Z,33.63
2018-12-03T15:08:03.524Z,32.83
2018-12-03T15:13:05.718Z,38.57
2018-12-03T15:18:07.876Z,31.57
2018-12-03T15:23:10.069Z,47.70
2018-12-03T15:28:15.471Z,42.40
2018-12-03T15:33:14.378Z,37.07
2018-12-03T15:38:16.566Z,34.83
2018-12-03T15:43:18.720Z,25.50
2018-12-03T15:48:20.870Z,35.67
2018-12-03T15:53:23.034Z,24.60
2018-12-03T15:58:25.213Z,32.43
2018-12-03T16:03:27.400Z,36.03
2018-12-03T16:08:29.519Z,46.23
2018-12-03T16:13:31.681Z,38.47
2018-12-03T16:19:17.595Z,36.33
2018-12-03T16:24:19.737Z,32.00
2018-12-03T16:29:21.978Z,50.13
2018-12-03T16:34:24.066Z,44.77
2018-12-03T16:39:26.178Z,41.30
2018-12-03T16:44:28.420Z,40.83
2018-12-03T16:49:30.641Z,25.67
2018-12-03T16:54:32.796Z,32.03
2018-12-03T16:59:34.885Z,38.50
2018-12-03T17:04:37.012Z,29.97
2018-12-03T17:09:39.290Z,38.10
2018-12-03T17:14:41.498Z,25.50
2018-12-03T17:19:43.825Z,32.07
2018-12-03T17:24:47.158Z,36.37
2018-12-03T17:29:52.475Z,40.87
2018-12-03T17:34:54.697Z,36.20
2018-12-03T17:39:57.113Z,56.50
2018-12-03T17:44:59.254Z,47.30
2018-12-03T17:50:01.441Z,37.13
2018-12-03T17:55:04.680Z,33.17
2018-12-03T18:00:11.109Z,47.10
2018-12-03T18:05:13.328Z,44.73
2018-12-03T18:10:15.644Z,47.00
2018-12-03T18:15:18.030Z,41.93
2018-12-03T18:20:20.225Z,39.23
2018-12-03T18:25:22.382Z,45.27
2018-12-03T18:30:24.728Z,39.40
2018-12-03T18:35:26.964Z,32.33
2018-12-03T18:40:29.217Z,31.77
2018-12-03T18:45:31.534Z,32.47
2018-12-03T18:50:35.714Z,41.90
2018-12-03T18:55:37.878Z,52.07
2018-12-03T19:00:40.946Z,37.17
2018-12-03T19:05:43.139Z,28.40
2018-12-03T19:10:45.496Z,36.77
2018-12-03T19:15:47.678Z,28.70
2018-12-03T19:20:49.951Z,38.40
2018-12-03T19:25:52.849Z,31.67
2018-12-03T19:30:56.802Z,32.73
2018-12-03T19:35:59.932Z,23.87
2018-12-03T19:41:02.808Z,32.37
2018-12-03T19:46:05.407Z,35.50
2018-12-03T19:51:10.334Z,38.57
2018-12-03T19:56:14.981Z,41.17
2018-12-03T20:01:20.191Z,20.13
2018-12-03T20:06:25.735Z,25.60
2018-12-03T20:11:30.895Z,28.23
2018-12-03T20:16:36.399Z,32.13
2018-12-03T20:21:42.165Z,29.27
2018-12-03T20:27:26.794Z,29.93
2018-12-03T20:32:35.838Z,31.37
2018-12-03T20:37:52.912Z,20.63
2018-12-03T20:43:05.004Z,32.00
2018-12-03T20:48:11.160Z,32.00
2018-12-03T20:53:20.720Z,32.10
2018-12-03T20:58:27.255Z,30.53
2018-12-03T21:03:35.805Z,28.10
2018-12-03T21:08:42.521Z,41.30
2018-12-03T21:13:48.801Z,28.50
2018-12-03T21:18:56.091Z,16.10
2018-12-03T21:24:02.249Z,17.13
2018-12-03T21:29:08.909Z,30.30
2018-12-03T21:34:13.924Z,13.80
2018-12-03T21:39:18.249Z,9.80
2018-12-03T21:44:20.658Z,9.77
2018-12-03T21:49:22.868Z,14.73
2018-12-03T21:54:25.154Z,13.07
2018-12-03T21:59:27.323Z,9.10
2018-12-03T22:04:29.413Z,14.43
2018-12-03T22:09:32.152Z,13.50
2018-12-03T22:14:34.258Z,14.83
2018-12-03T22:19:36.469Z,11.03
2018-12-03T22:24:38.573Z,24.77
2018-12-03T22:29:40.898Z,13.97
2018-12-03T22:34:43.105Z,7.97
2018-12-03T22:39:46.436Z,15.33
2018-12-03T22:44:49.161Z,11.53
2018-12-03T22:49:51.326Z,6.63
2018-12-03T22:54:53.530Z,14.43
2018-12-03T22:59:55.610Z,10.40
2018-12-03T23:04:57.797Z,8.70
2018-12-03T23:09:59.907Z,15.87
2018-12-03T23:15:02.419Z,15.40
2018-12-03T23:20:05.324Z,17.30
2018-12-03T23:25:07.687Z,7.90
2018-12-03T23:30:09.895Z,15.23
2018-12-03T23:35:12.149Z,13.83
2018-12-03T23:40:14.232Z,10.33
2018-12-03T23:45:16.350Z,11.10
2018-12-03T23:50:18.545Z,24.57
2018-12-03T23:55:20.634Z,10.00
